Time;durP1;ratioP1;P1;durP2;ratioP2;P2;SDS_P1;SDS_P2;PMS_P1;PMS_P2;Temp;Humidity;BMP_temperature;BMP_pressure;BME280_temperature;BME280_humidity;BME280_pressure;Samples;Min_cycle;Max_cycle;Signal;HPM_P1;HPM_P2
2022/08/03 00:00:08;;;;;;;16.70;15.05;;;;;;;18.44;100.00;100321.52;1713837;81;21524;-95
2022/08/03 00:02:37;;;;;;;16.17;14.58;;;;;;;18.47;100.00;100324.30;1709216;81;21058;-93
2022/08/03 00:05:07;;;;;;;15.88;14.47;;;;;;;18.49;100.00;100320.48;1726466;81;21031;-94
2022/08/03 00:07:35;;;;;;;16.02;13.98;;;;;;;18.49;100.00;100320.48;1694713;84;21064;-96
2022/08/03 00:10:05;;;;;;;15.40;14.00;;;;;;;18.48;100.00;100321.48;1694056;84;21092;-96
2022/08/03 00:12:35;;;;;;;;;;;;;;;18.48;100.00;100321.48;1697121;84;20965;-96
2022/08/03 00:15:05;;;;;;;15.65;14.15;;;;;;;18.49;100.00;100319.17;1694393;84;20431;-95
2022/08/03 00:17:33;;;;;;;16.27;14.68;;;;;;;18.49;100.00;100317.85;1694425;84;21065;-96
2022/08/03 00:20:00;;;;;;;16.07;14.50;;;;;;;18.48;100.00;100321.48;1694421;84;21076;-95
2022/08/03 00:22:27;;;;;;;17.05;15.35;;;;;;;18.46;100.00;100319.53;1694668;84;21563;-95
2022/08/03 00:24:59;;;;;;;16.80;15.18;;;;;;;18.43;100.00;100319.88;1694276;84;21048;-95
2022/08/03 00:27:26;;;;;;;17.07;15.28;;;;;;;18.40;100.00;100317.57;1694794;84;21040;-95
2022/08/03 00:29:53;;;;;;;17.62;15.28;;;;;;;18.39;100.00;100322.52;1694666;84;21024;-92
2022/08/03 00:32:20;;;;;;;17.48;14.80;;;;;;;18.33;100.00;100320.11;1694630;84;21977;-93
2022/08/03 00:34:48;;;;;;;15.30;13.90;;;;;;;18.27;100.00;100312.87;1694629;84;21430;-93
2022/08/03 00:37:15;;;;;;;16.25;14.68;;;;;;;18.25;100.00;100313.56;1694940;84;21048;-92
2022/08/03 00:39:46;;;;;;;18.17;15.60;;;;;;;18.24;100.00;100314.04;1694634;84;21068;-93
2022/08/03 00:42:13;;;;;;;17.90;14.43;;;;;;;18.24;100.00;100317.19;1694830;84;21056;-94
2022/08/03 00:44:47;;;;;;;15.85;14.33;;;;;;;18.21;100.00;100317.04;1694757;84;21008;-94
2022/08/03 00:47:15;;;;;;;15.60;14.00;;;;;;;18.19;100.00;100315.06;1694650;84;21076;-95
2022/08/03 00:49:45;;;;;;;15.80;14.15;;;;;;;18.18;100.00;100307.34;1694568;84;21017;-95
2022/08/03 00:52:16;;;;;;;16.23;14.45;;;;;;;18.18;100.00;100301.56;1694744;84;21021;-94
2022/08/03 00:54:43;;;;;;;15.85;14.23;;;;;;;18.18;100.00;100303.39;1694788;84;21068;-95
2022/08/03 00:57:11;;;;;;;15.93;14.20;;;;;;;18.15;100.00;100306.36;1694946;84;21095;-94
2022/08/03 00:59:39;;;;;;;15.00;13.50;;;;;;;18.13;100.00;100309.17;1694677;84;21234;-93
2022/08/03 01:02:06;;;;;;;16.52;14.93;;;;;;;18.11;100.00;100314.59;1694563;84;21048;-93
2022/08/03 01:04:33;;;;;;;15.72;14.18;;;;;;;18.09;100.00;100318.40;1691383;84;21108;-93
2022/08/03 01:07:34;;;;;;;15.35;13.75;;;;;;;18.06;100.00;100321.40;1704057;81;21060;-92
2022/08/03 01:10:29;;;;;;;16.35;14.73;;;;;;;18.01;100.00;100321.91;1745100;82;21046;-95
2022/08/03 01:13:17;;;;;;;16.37;14.50;;;;;;;18.00;100.00;100322.06;1740072;82;21139;-95
2022/08/03 01:15:57;;;;;;;16.57;14.95;;;;;;;17.95;100.00;100320.77;1744890;82;21070;-92
2022/08/03 01:18:48;;;;;;;16.17;14.58;;;;;;;17.89;100.00;100316.16;1743001;82;21053;-95
2022/08/03 01:21:32;;;;;;;17.37;15.05;;;;;;;17.84;100.00;100314.52;1713973;83;21064;-95
2022/08/03 01:24:12;;;;;;;16.00;14.20;;;;;;;17.80;100.00;100318.50;1711636;83;21075;-93
2022/08/03 01:27:05;;;;;;;16.30;14.70;;;;;;;17.75;100.00;100307.63;1711594;83;21357;-95
2022/08/03 01:30:04;;;;;;;16.60;14.90;;;;;;;17.74;100.00;100304.70;1710401;83;21093;-94
2022/08/03 01:32:49;;;;;;;16.23;14.63;;;;;;;17.70;100.00;100315.23;1713999;83;21525;-95
2022/08/03 01:35:33;;;;;;;16.48;14.83;;;;;;;17.68;100.00;100302.72;1709514;83;21545;-94
2022/08/03 01:38:05;;;;;;;16.65;14.95;;;;;;;17.63;100.00;100304.06;1712459;83;20992;-94
2022/08/03 01:40:36;;;;;;;16.75;14.83;;;;;;;17.60;100.00;100298.32;1713841;82;22206;-95
2022/08/03 01:43:10;;;;;;;16.12;14.55;;;;;;;17.59;100.00;100302.75;1709393;83;21066;-93
2022/08/03 01:45:39;;;;;;;15.65;13.98;;;;;;;17.58;100.00;100306.40;1713831;83;21067;-96
2022/08/03 01:48:14;;;;;;;16.55;14.95;;;;;;;17.57;100.00;100299.48;1713909;83;21036;-95
2022/08/03 01:50:44;;;;;;;17.98;14.63;;;;;;;17.57;100.00;100302.13;1710120;83;21091;-94
2022/08/03 01:53:15;;;;;;;15.58;14.05;;;;;;;17.59;100.00;100301.94;1709375;83;21238;-94
2022/08/03 01:55:47;;;;;;;;;;;;;;;17.60;100.00;100297.00;1714548;83;21067;-94
2022/08/03 01:58:20;;;;;;;19.05;14.40;;;;;;;17.61;100.00;100295.52;1679350;85;20179;-94
2022/08/03 02:00:50;;;;;;;15.35;13.90;;;;;;;17.60;100.00;100295.18;1688092;85;21019;-94
2022/08/03 02:03:21;;;;;;;18.93;15.47;;;;;;;17.60;100.00;100297.81;1704345;83;21001;-93
2022/08/03 02:05:49;;;;;;;16.45;14.53;;;;;;;17.62;100.00;100305.56;1745337;81;21102;-93
2022/08/03 02:08:24;;;;;;;16.23;14.53;;;;;;;17.59;100.00;100306.70;1744973;82;21093;-94
2022/08/03 02:10:56;;;;;;;16.25;14.63;;;;;;;17.60;100.00;100307.53;1744993;82;21030;-95
2022/08/03 02:13:27;;;;;;;15.98;13.98;;;;;;;17.62;100.00;100306.88;1745125;82;21112;-95
2022/08/03 02:15:55;;;;;;;18.23;16.42;;;;;;;17.61;100.00;100315.25;1745418;82;21354;-94
2022/08/03 02:18:23;;;;;;;18.57;14.90;;;;;;;17.62;100.00;100312.14;1745246;82;21150;-95
2022/08/03 02:20:51;;;;;;;16.75;15.13;;;;;;;17.56;100.00;100308.37;1745229;82;21026;-93
2022/08/03 02:23:20;;;;;;;16.02;14.58;;;;;;;17.54;100.00;100321.38;1741340;82;21086;-92
2022/08/03 02:25:56;;;;;;;20.15;17.87;;;;;;;17.53;100.00;100321.86;1715009;82;21022;-94
2022/08/03 02:28:32;;;;;;;16.55;14.93;;;;;;;17.53;100.00;100325.80;1729067;81;20970;-94
2022/08/03 02:31:04;;;;;;;17.32;15.63;;;;;;;17.49;100.00;100315.30;1723626;83;21939;-94
2022/08/03 02:33:40;;;;;;;17.12;15.32;;;;;;;17.49;100.00;100312.66;1729440;83;21010;-94
2022/08/03 02:36:07;;;;;;;17.62;15.95;;;;;;;17.52;100.00;100311.50;1726918;82;21009;-94
2022/08/03 02:38:40;;;;;;;19.35;17.30;;;;;;;17.54;100.00;100310.34;1684299;83;21063;-95
2022/08/03 02:41:16;;;;;;;18.98;17.10;;;;;;;17.56;100.00;100311.00;1713377;83;21065;-95
2022/08/03 02:43:48;;;;;;;20.90;18.87;;;;;;;17.60;100.00;100312.80;1716559;83;21816;-93
2022/08/03 02:46:19;;;;;;;20.85;18.75;;;;;;;17.62;100.00;100309.00;1715640;83;21090;-95
2022/08/03 02:48:47;;;;;;;22.60;20.35;;;;;;;17.63;100.00;100313.28;1726645;83;21546;-94
2022/08/03 02:51:18;;;;;;;21.42;19.27;;;;;;;17.65;100.00;100314.42;1718580;83;21014;-95
2022/08/03 02:53:48;;;;;;;24.20;21.62;;;;;;;17.64;100.00;100312.77;1690751;82;21436;-92
2022/08/03 02:56:17;;;;;;;23.52;20.72;;;;;;;17.64;100.00;100312.77;1678727;83;21798;-93
2022/08/03 02:58:48;;;;;;;22.40;20.30;;;;;;;17.64;100.00;100307.51;1706321;83;21022;-93
2022/08/03 03:01:19;;;;;;;22.27;19.87;;;;;;;17.67;100.00;100301.92;1739646;81;21643;-93
2022/08/03 03:03:47;;;;;;;23.67;21.33;;;;;;;17.71;100.00;100303.20;1680856;85;21109;-95
2022/08/03 03:06:18;;;;;;;23.27;20.80;;;;;;;17.77;100.00;100309.61;1689082;83;21100;-95
2022/08/03 03:08:47;;;;;;;20.75;18.55;;;;;;;17.82;100.00;100305.98;1670267;83;21157;-95
2022/08/03 03:11:18;;;;;;;22.10;20.00;;;;;;;17.89;100.00;100303.00;1662885;84;21120;-94
2022/08/03 03:13:49;;;;;;;22.22;19.92;;;;;;;17.96;100.00;100301.83;1678073;85;21585;-96
2022/08/03 03:16:18;;;;;;;23.18;20.68;;;;;;;18.03;100.00;100300.66;1678240;85;21568;-94
2022/08/03 03:18:48;;;;;;;25.88;23.27;;;;;;;18.10;100.00;100307.71;1678533;85;21595;-96
2022/08/03 03:21:19;;;;;;;24.92;22.13;;;;;;;18.16;100.00;100307.49;1678095;85;21213;-94
2022/08/03 03:23:48;;;;;;;26.63;23.93;;;;;;;18.19;100.00;100304.53;1678535;85;21483;-94
2022/08/03 03:26:17;;;;;;;25.23;22.62;;;;;;;18.23;100.00;100305.00;1678383;85;21077;-94
2022/08/03 03:28:45;;;;;;;27.82;24.98;;;;;;;18.25;100.00;100305.66;1678316;85;21166;-95
2022/08/03 03:31:12;;;;;;;23.98;21.50;;;;;;;18.28;100.00;100303.48;1678310;84;21109;-92
2022/08/03 03:33:40;;;;;;;23.47;21.17;;;;;;;18.33;100.00;100303.45;1668567;85;21260;-92
2022/08/03 03:36:09;;;;;;;23.62;21.33;;;;;;;18.38;100.00;100300.63;1678558;84;21015;-93
2022/08/03 03:38:37;;;;;;;22.58;20.43;;;;;;;18.45;100.00;100298.13;1678036;85;21069;-95
2022/08/03 03:41:07;;;;;;;24.87;22.48;;;;;;;18.53;100.00;100298.55;1678041;85;21019;-90
2022/08/03 03:43:34;;;;;;;24.33;21.77;;;;;;;18.58;100.00;100298.35;1678539;85;21553;-91
2022/08/03 03:46:05;;;;;;;24.18;21.82;;;;;;;18.62;100.00;100303.28;1684353;83;23105;-92
2022/08/03 03:48:33;;;;;;;24.52;22.22;;;;;;;18.66;100.00;100303.23;1637236;87;21084;-93
2022/08/03 03:51:03;;;;;;;26.65;22.60;;;;;;;18.71;100.00;100306.16;1649174;87;21058;-94
2022/08/03 03:53:31;;;;;;;24.30;21.90;;;;;;;18.74;100.00;100301.37;1637709;87;21102;-94
2022/08/03 03:55:59;;;;;;;24.87;22.42;;;;;;;18.81;100.00;100300.66;1652613;84;21033;-92
2022/08/03 03:58:29;;;;;;;23.52;21.35;;;;;;;18.86;100.00;100303.09;1711022;83;21183;-95
2022/08/03 04:00:57;;;;;;;23.87;21.55;;;;;;;18.91;100.00;100303.38;1693354;84;21081;-92
2022/08/03 04:03:24;;;;;;;25.37;22.95;;;;;;;18.96;100.00;100303.36;1710684;82;21101;-92
2022/08/03 04:10:57;;;;;;;27.98;25.37;;;;;;;19.08;100.00;100307.22;1714772;83;21093;-96
2022/08/03 04:11:37;;;;;;;28.02;25.25;;;;;;;19.14;100.00;100303.86;1747639;81;21124;-93
2022/08/03 04:14:12;;;;;;;29.02;26.12;;;;;;;19.19;100.00;100314.69;1709115;83;21031;-95
2022/08/03 04:16:46;;;;;;;28.23;25.52;;;;;;;19.23;100.00;100308.55;1716249;83;21555;-94
2022/08/03 04:19:41;;;;;;;26.87;24.02;;;;;;;19.25;100.00;100301.80;1694386;83;21018;-94
2022/08/03 04:22:12;;;;;;;26.40;23.80;;;;;;;19.31;100.00;100306.34;1731380;82;21039;-96
2022/08/03 04:24:46;;;;;;;;;;;;;;;19.39;100.00;100309.71;1721600;83;21616;-95
2022/08/03 04:27:18;;;;;;;26.45;23.60;;;;;;;19.43;100.00;100303.56;1716895;83;20497;-92
2022/08/03 04:29:48;;;;;;;29.35;26.35;;;;;;;19.52;100.00;100308.28;1715992;82;21051;-95
2022/08/03 04:32:16;;;;;;;26.90;24.37;;;;;;;19.60;100.00;100305.55;1719370;82;21058;-95
2022/08/03 04:34:43;;;;;;;28.67;25.97;;;;;;;19.68;100.00;100308.58;1698992;83;21537;-94
2022/08/03 04:37:15;;;;;;;30.80;26.97;;;;;;;19.77;100.00;100310.64;1719446;83;21204;-94
2022/08/03 04:39:46;;;;;;;30.57;27.48;;;;;;;19.83;100.00;100302.78;1716732;83;21087;-95
2022/08/03 04:42:14;;;;;;;28.17;24.85;;;;;;;19.92;100.00;100303.55;1719175;83;21107;-95
2022/08/03 04:44:44;;;;;;;26.97;24.45;;;;;;;20.00;100.00;100302.61;1694007;83;21996;-94
2022/08/03 04:47:13;;;;;;;27.62;25.12;;;;;;;20.08;100.00;100299.05;1704034;83;21070;-95
2022/08/03 04:49:40;;;;;;;27.52;24.65;;;;;;;20.18;100.00;100308.32;1738425;81;21123;-96
2022/08/03 04:52:11;;;;;;;27.87;24.98;;;;;;;20.27;100.00;100306.38;1701603;83;21010;-95
2022/08/03 04:54:42;;;;;;;27.35;24.45;;;;;;;20.41;100.00;100306.02;1696264;83;21567;-94
2022/08/03 04:57:11;;;;;;;29.23;26.40;;;;;;;20.55;100.00;100304.33;1706203;83;21023;-96
2022/08/03 04:59:40;;;;;;;29.70;26.62;;;;;;;20.70;100.00;100309.57;1711156;83;21054;-96
2022/08/03 05:02:10;;;;;;;29.05;26.37;;;;;;;20.83;100.00;100312.84;1715171;83;21251;-95
2022/08/03 05:04:40;;;;;;;28.85;25.95;;;;;;;20.96;100.00;100314.78;1704796;82;21112;-95
2022/08/03 05:07:07;;;;;;;28.60;25.90;;;;;;;21.06;100.00;100315.28;1688671;83;21566;-95
2022/08/03 05:09:37;;;;;;;27.85;25.20;;;;;;;21.19;100.00;100326.48;1668335;83;21026;-95
2022/08/03 05:12:05;;;;;;;28.02;25.32;;;;;;;21.36;100.00;100332.80;1678709;84;21073;-96
2022/08/03 05:14:38;;;;;;;27.40;24.90;;;;;;;21.51;100.00;100330.86;1676638;83;21125;-95
2022/08/03 05:17:05;;;;;;;;;;;;;;;21.66;100.00;100329.47;1674285;82;21496;-95
2022/08/03 05:19:33;;;;;;;28.75;26.07;;;;;;;21.78;100.00;100324.43;1676662;83;20151;-95
2022/08/03 05:22:02;;;;;;;26.48;23.87;;;;;;;21.88;100.00;100328.03;1680207;84;21061;-96
2022/08/03 05:24:31;;;;;;;29.00;26.05;;;;;;;21.97;100.00;100330.83;1696529;83;21054;-95
2022/08/03 05:27:00;;;;;;;27.15;24.47;;;;;;;22.05;100.00;100326.69;1696760;83;21140;-96
2022/08/03 05:29:27;;;;;;;27.58;24.87;;;;;;;22.13;100.00;100330.17;1683470;84;21031;-91
2022/08/03 05:31:55;;;;;;;25.50;23.10;;;;;;;22.19;100.00;100328.84;1670092;83;21090;-92
2022/08/03 05:34:22;;;;;;;26.02;23.42;;;;;;;22.28;100.00;100334.81;1681199;83;20992;-93
2022/08/03 05:36:49;;;;;;;24.98;22.50;;;;;;;22.36;100.00;100332.47;1686298;83;21062;-94
2022/08/03 05:39:17;;;;;;;27.80;25.05;;;;;;;22.44;100.00;100335.49;1658560;85;21113;-95
2022/08/03 05:41:44;;;;;;;27.95;25.12;;;;;;;22.55;100.00;100339.39;1657936;86;22048;-95
2022/08/03 05:44:12;;;;;;;28.38;25.77;;;;;;;22.62;100.00;100339.72;1671438;85;21062;-93
2022/08/03 05:46:39;;;;;;;28.75;26.05;;;;;;;22.68;100.00;100338.91;1673102;83;21551;-92
2022/08/03 05:49:07;;;;;;;29.42;26.50;;;;;;;22.72;100.00;100342.47;1683387;83;21061;-96
2022/08/03 05:51:36;;;;;;;28.07;25.43;;;;;;;22.79;100.00;100344.12;1685626;83;21688;-85
2022/08/03 05:54:03;;;;;;;27.15;24.45;;;;;;;22.86;100.00;100338.83;1682950;84;20998;-85
2022/08/03 05:56:34;;;;;;;27.27;24.72;;;;;;;22.95;100.00;100336.77;1678410;84;21017;-85
2022/08/03 05:59:01;;;;;;;31.40;28.45;;;;;;;23.02;100.00;100338.91;1681869;84;21049;-85
2022/08/03 06:01:31;;;;;;;29.35;26.70;;;;;;;23.06;100.00;100336.67;1678900;84;21038;-87
2022/08/03 06:03:58;;;;;;;29.32;26.27;;;;;;;23.10;100.00;100338.71;1694708;83;21152;-86
2022/08/03 06:06:31;;;;;;;25.70;23.40;;;;;;;23.16;100.00;100337.88;1662876;84;21575;-85
2022/08/03 06:08:58;;;;;;;26.97;24.47;;;;;;;23.21;100.00;100337.30;1716669;83;21172;-84
2022/08/03 06:11:26;;;;;;;24.92;22.70;;;;;;;23.29;100.00;100333.62;1715764;83;21538;-86
2022/08/03 06:13:56;;;;;;;25.40;23.02;;;;;;;23.36;100.00;100338.91;1716728;83;20955;-85
2022/08/03 06:16:23;;;;;;;25.50;23.20;;;;;;;23.40;100.00;100335.64;1717089;83;21142;-85
2022/08/03 06:18:50;;;;;;;27.52;24.75;;;;;;;23.46;100.00;100330.02;1716845;82;21179;-84
2022/08/03 06:21:18;;;;;;;29.02;26.05;;;;;;;23.51;100.00;100330.23;1685380;84;21734;-87
2022/08/03 06:23:46;;;;;;;27.50;24.80;;;;;;;23.58;100.00;100333.68;1680264;84;21145;-90
2022/08/03 06:26:13;;;;;;;28.35;25.43;;;;;;;23.67;100.00;100329.47;1680034;84;21935;-84
2022/08/03 06:28:45;;;;;;;26.40;24.00;;;;;;;23.76;100.00;100329.52;1678869;84;21150;-87
2022/08/03 06:31:15;;;;;;;25.55;22.98;;;;;;;23.88;100.00;100336.33;1699008;83;21105;-84
2022/08/03 06:33:45;;;;;;;27.50;24.80;;;;;;;23.99;100.00;100343.69;1693076;84;20976;-84
2022/08/03 06:36:13;;;;;;;25.50;23.00;;;;;;;24.12;100.00;100344.14;1694525;83;21042;-85
2022/08/03 06:38:44;;;;;;;26.02;23.62;;;;;;;24.24;100.00;100338.97;1710372;83;21010;-85
2022/08/03 06:41:14;;;;;;;27.32;24.70;;;;;;;24.39;100.00;100342.69;1659127;86;21807;-84
2022/08/03 06:43:41;;;;;;;30.00;27.00;;;;;;;24.48;100.00;100335.25;1658676;86;21757;-83
2022/08/03 06:46:09;;;;;;;27.20;24.52;;;;;;;24.57;100.00;100336.63;1660737;86;21184;-88
2022/08/03 06:48:36;;;;;;;27.67;25.15;;;;;;;24.66;100.00;100339.84;1699692;84;21054;-88
2022/08/03 06:51:03;;;;;;;27.60;25.08;;;;;;;24.73;100.00;100337.97;1699809;84;21077;-88
2022/08/03 06:53:31;;;;;;;27.90;25.27;;;;;;;24.79;100.00;100337.62;1699828;84;21165;-86
2022/08/03 06:55:58;;;;;;;26.62;24.12;;;;;;;24.84;100.00;100340.45;1698954;83;21659;-87
2022/08/03 06:58:25;;;;;;;27.22;24.75;;;;;;;24.93;100.00;100338.34;1699529;84;21089;-90
2022/08/03 07:00:52;;;;;;;27.75;25.15;;;;;;;25.01;100.00;100343.41;1696205;84;21337;-93
2022/08/03 07:03:20;;;;;;;26.23;23.92;;;;;;;25.11;100.00;100342.91;1652233;85;21603;-90
2022/08/03 07:05:48;;;;;;;26.17;23.92;;;;;;;25.17;100.00;100337.52;1650630;84;21136;-89
2022/08/03 07:08:19;;;;;;;26.45;23.85;;;;;;;25.26;100.00;100342.04;1678906;85;21062;-90
2022/08/03 07:10:46;;;;;;;26.30;23.90;;;;;;;25.34;100.00;100343.62;1678028;85;21078;-89
2022/08/03 07:13:16;;;;;;;25.05;22.65;;;;;;;25.43;100.00;100341.50;1678781;85;20983;-89
2022/08/03 07:15:44;;;;;;;27.70;24.98;;;;;;;25.51;100.00;100342.05;1678864;85;21035;-91
2022/08/03 07:18:16;;;;;;;28.25;25.48;;;;;;;25.60;100.00;100341.75;1691552;83;21064;-90
2022/08/03 07:20:44;;;;;;;27.22;24.72;;;;;;;25.65;100.00;100347.22;1693853;83;20971;-91
2022/08/03 07:23:13;;;;;;;25.62;23.27;;;;;;;25.70;100.00;100354.56;1711813;83;20990;-91
2022/08/03 07:25:41;;;;;;;26.50;24.15;;;;;;;25.77;100.00;100352.63;1682539;84;21557;-91
2022/08/03 07:28:08;;;;;;;25.90;23.55;;;;;;;25.86;100.00;100354.47;1668592;84;21101;-92
2022/08/03 07:30:35;;;;;;;25.17;22.85;;;;;;;26.00;100.00;100349.27;1690488;83;21229;-91
2022/08/03 07:33:02;;;;;;;26.87;24.25;;;;;;;26.16;100.00;100348.41;1680273;84;21459;-91
2022/08/03 07:35:30;;;;;;;25.35;23.05;;;;;;;26.31;100.00;100346.14;1694088;83;21536;-90
2022/08/03 07:37:58;;;;;;;22.73;20.72;;;;;;;26.44;100.00;100345.95;1740582;81;21595;-91
2022/08/03 07:40:26;;;;;;;26.10;23.62;;;;;;;26.50;100.00;100344.73;1730629;81;21690;-90
2022/08/03 07:42:54;;;;;;;25.60;23.32;;;;;;;26.58;100.00;100343.91;1732057;81;21853;-91
2022/08/03 07:45:22;;;;;;;23.85;21.85;;;;;;;26.67;100.00;100348.91;1731637;82;21070;-90
2022/08/03 07:47:49;;;;;;;24.40;22.22;;;;;;;26.74;100.00;100350.42;1730011;82;21006;-90
2022/08/03 07:50:18;;;;;;;24.30;22.10;;;;;;;26.72;100.00;100345.02;1719124;82;21057;-91
2022/08/03 07:52:51;;;;;;;24.40;22.30;;;;;;;26.64;100.00;100343.48;1728818;82;21067;-90
2022/08/03 07:55:21;;;;;;;24.60;22.50;;;;;;;26.50;100.00;100342.06;1723592;81;21828;-91
2022/08/03 07:58:01;;;;;;;24.85;22.45;;;;;;;26.36;100.00;100350.27;1728828;81;21050;-91
2022/08/03 08:00:31;;;;;;;24.77;22.55;;;;;;;26.29;100.00;100350.35;1714842;83;21061;-90
2022/08/03 08:03:00;;;;;;;24.00;21.90;;;;;;;26.35;100.00;100345.97;1717840;81;21061;-91
2022/08/03 08:05:28;;;;;;;23.95;21.75;;;;;;;26.47;100.00;100342.00;1725502;81;21065;-91
2022/08/03 08:07:55;;;;;;;22.48;20.57;;;;;;;26.63;100.00;100348.56;1734742;81;21203;-90
2022/08/03 08:10:24;;;;;;;23.73;21.45;;;;;;;26.76;100.00;100348.38;1728374;81;21029;-90
2022/08/03 08:12:54;;;;;;;24.80;22.65;;;;;;;26.86;100.00;100341.13;1723270;81;21006;-90
2022/08/03 08:15:22;;;;;;;24.72;22.62;;;;;;;27.03;100.00;100346.62;1731767;81;21035;-90
2022/08/03 08:17:53;;;;;;;22.98;20.92;;;;;;;27.13;100.00;100339.35;1737119;81;21037;-90
2022/08/03 08:20:24;;;;;;;22.58;20.60;;;;;;;27.15;100.00;100343.95;1724449;81;21246;-89
2022/08/03 08:22:59;;;;;;;23.12;21.17;;;;;;;27.13;100.00;100346.03;1720870;82;21081;-91
2022/08/03 08:25:27;;;;;;;23.12;21.12;;;;;;;27.13;100.00;100338.52;1729549;81;21069;-90
2022/08/03 08:28:01;;;;;;;22.93;20.72;;;;;;;27.23;100.00;100328.91;1695350;83;21062;-90
2022/08/03 08:30:27;;;;;;;22.70;20.72;;;;;;;27.40;100.00;100333.00;1708499;83;21085;-89
2022/08/03 08:32:54;;;;;;;24.67;22.40;;;;;;;27.57;100.00;100324.29;1710593;83;21151;-90
2022/08/03 08:35:21;;;;;;;22.17;20.30;;;;;;;27.79;100.00;100320.46;1734140;82;21148;-89
2022/08/03 08:37:49;;;;;;;22.42;20.52;;;;;;;28.03;100.00;100325.19;1720490;81;21050;-90
2022/08/03 08:40:18;;;;;;;22.20;20.10;;;;;;;28.17;100.00;100322.25;1719855;82;21086;-89
2022/08/03 08:42:46;;;;;;;23.10;21.10;;;;;;;28.26;100.00;100324.03;1719588;82;21592;-90
2022/08/03 08:45:14;;;;;;;23.45;21.35;;;;;;;28.32;100.00;100325.20;1719266;81;21143;-89
2022/08/03 08:47:46;;;;;;;24.10;21.90;;;;;;;28.33;100.00;100328.70;1727587;81;21007;-92
2022/08/03 08:50:20;;;;;;;23.55;21.25;;;;;;;28.28;100.00;100326.74;1736250;82;21014;-92
2022/08/03 08:52:54;;;;;;;23.18;21.00;;;;;;;28.15;100.00;100322.50;1696362;84;21140;-91
2022/08/03 08:55:23;;;;;;;22.85;20.88;;;;;;;27.98;100.00;100326.95;1696132;84;21065;-92
2022/08/03 08:57:59;;;;;;;23.40;21.30;;;;;;;27.79;100.00;100320.97;1703514;83;21254;-92
2022/08/03 09:00:26;;;;;;;24.50;22.45;;;;;;;27.62;100.00;100327.06;1704155;83;21054;-91
2022/08/03 09:02:53;;;;;;;23.18;21.23;;;;;;;27.47;100.00;100333.42;1692280;83;21016;-91
2022/08/03 09:05:22;;;;;;;24.20;21.85;;;;;;;27.31;100.00;100340.28;1706455;83;21110;-91
2022/08/03 09:08:07;;;;;;;24.00;21.90;;;;;;;27.17;100.00;100341.03;1703059;83;21108;-91
2022/08/03 09:10:35;;;;;;;13.15;11.80;;;;;;;27.07;100.00;100342.95;1670888;84;21851;-90
2022/08/03 09:13:07;;;;;;;11.50;10.50;;;;;;;26.76;100.00;100327.55;1679732;85;20976;-90
2022/08/03 09:15:36;;;;;;;15.95;11.00;;;;;;;26.23;100.00;100333.12;1680485;85;21537;-90
2022/08/03 09:18:08;;;;;;;10.75;9.75;;;;;;;25.66;100.00;100354.19;1648614;87;21687;-89
2022/08/03 09:20:36;;;;;;;9.83;9.03;;;;;;;25.09;100.00;100368.44;1679965;85;21518;-91
2022/08/03 09:23:11;;;;;;;8.33;7.53;;;;;;;24.60;100.00;100385.95;1649708;87;21100;-90
2022/08/03 09:25:42;;;;;;;7.40;6.70;;;;;;;24.03;100.00;100409.23;1680534;83;20999;-91
2022/08/03 09:28:16;;;;;;;28.30;10.63;;;;;;;23.39;100.00;100439.45;1726847;81;21045;-89
2022/08/03 09:34:37;;;;;;;15.45;9.08;;;;;;;22.25;100.00;100439.95;1721454;81;21169;-90
2022/08/03 09:37:17;;;;;;;12.68;6.47;;;;;;;21.50;100.00;100462.98;1736582;81;21138;-88
2022/08/03 09:39:46;;;;;;;8.70;5.60;;;;;;;21.08;100.00;100464.15;1746358;81;22040;-89
2022/08/03 09:42:21;;;;;;;9.35;5.87;;;;;;;20.74;100.00;100440.48;1724065;82;21026;-89
2022/08/03 09:44:51;;;;;;;5.70;5.20;;;;;;;20.40;100.00;100439.74;1720395;81;21077;-89
2022/08/03 09:47:37;;;;;;;9.15;6.65;;;;;;;20.07;100.00;100454.14;1736419;81;21060;-91
2022/08/03 09:50:08;;;;;;;7.95;7.10;;;;;;;20.07;100.00;100450.18;1741317;81;21121;-89
2022/08/03 09:52:38;;;;;;;7.15;5.33;;;;;;;20.12;100.00;100396.30;1717029;81;21022;-89
2022/08/03 09:55:12;;;;;;;6.12;5.37;;;;;;;20.17;100.00;100400.52;1677742;85;21663;-90
2022/08/03 09:57:45;;;;;;;5.35;4.85;;;;;;;20.15;100.00;100409.64;1678966;85;21095;-89
2022/08/03 10:00:15;;;;;;;6.47;5.28;;;;;;;20.10;100.00;100423.40;1678838;85;21142;-89
2022/08/03 10:02:44;;;;;;;7.30;5.35;;;;;;;20.04;100.00;100425.94;1685402;83;22213;-89
2022/08/03 10:05:13;;;;;;;7.53;6.30;;;;;;;19.91;100.00;100412.07;1740925;81;21209;-89
2022/08/03 10:07:46;;;;;;;7.45;6.67;;;;;;;19.88;100.00;100409.78;1733431;81;21002;-89
2022/08/03 10:10:16;;;;;;;10.40;6.90;;;;;;;19.86;100.00;100406.81;1725854;81;21120;-89
2022/08/03 10:12:47;;;;;;;8.53;7.72;;;;;;;19.91;100.00;100409.42;1674975;84;21061;-90
2022/08/03 10:15:17;;;;;;;;;;;;;;;20.01;100.00;100424.48;1675319;84;21824;-89
2022/08/03 10:17:44;;;;;;;10.10;8.60;;;;;;;20.08;100.00;100417.47;1638143;86;20193;-88
2022/08/03 10:20:13;;;;;;;10.78;8.45;;;;;;;20.10;100.00;100412.83;1703494;82;21050;-88
2022/08/03 10:22:41;;;;;;;8.65;7.75;;;;;;;20.16;100.00;100432.42;1672042;84;21066;-88
2022/08/03 10:25:16;;;;;;;8.03;6.95;;;;;;;20.25;100.00;100447.68;1658849;85;21022;-88
2022/08/03 10:27:46;;;;;;;11.33;7.00;;;;;;;20.35;100.00;100448.74;1668999;84;21191;-88
2022/08/03 10:30:14;;;;;;;7.92;6.75;;;;;;;20.42;100.00;100447.00;1669121;85;21003;-89
2022/08/03 10:33:08;;;;;;;7.20;6.50;;;;;;;20.49;100.00;100448.70;1702385;83;21521;-89
2022/08/03 10:35:40;;;;;;;7.10;6.50;;;;;;;20.56;100.00;100446.15;1701815;83;21465;-88
2022/08/03 10:38:15;;;;;;;6.58;5.97;;;;;;;20.63;100.00;100449.69;1670345;85;21121;-89
2022/08/03 10:40:44;;;;;;;7.42;6.10;;;;;;;20.71;100.00;100455.36;1693339;83;21504;-89
2022/08/03 10:43:27;;;;;;;6.80;6.22;;;;;;;20.77;100.00;100452.50;1663183;84;21050;-89
2022/08/03 10:45:55;;;;;;;8.33;7.53;;;;;;;20.82;100.00;100458.08;1680902;84;21097;-90
2022/08/03 10:48:23;;;;;;;8.65;7.80;;;;;;;20.85;100.00;100464.81;1672728;84;21073;-91
2022/08/03 10:50:52;;;;;;;8.18;7.47;;;;;;;20.86;100.00;100475.20;1624433;87;21100;-92
2022/08/03 10:53:42;;;;;;;9.15;7.55;;;;;;;20.86;100.00;100499.02;1672332;85;21140;-90
2022/08/03 10:59:49;;;;;;;8.43;7.60;;;;;;;20.40;100.00;100509.30;1665657;85;20990;-90
2022/08/03 11:02:16;;;;;;;9.63;8.63;;;;;;;20.16;100.00;100503.80;1659271;85;21061;-90
2022/08/03 11:04:47;;;;;;;9.13;8.23;;;;;;;20.08;100.00;100502.55;1689199;84;21081;-92
2022/08/03 11:07:21;;;;;;;10.35;9.25;;;;;;;20.04;100.00;100492.84;1672276;84;22159;-92
2022/08/03 11:09:56;;;;;;;9.50;8.53;;;;;;;20.04;100.00;100491.52;1682194;84;21019;-92
2022/08/03 11:12:32;;;;;;;10.35;9.30;;;;;;;20.03;100.00;100483.27;1677106;85;21071;-91
2022/08/03 11:15:08;;;;;;;9.45;8.55;;;;;;;20.00;100.00;100477.02;1656963;85;39041;-91
2022/08/03 11:17:37;;;;;;;9.65;8.73;;;;;;;19.95;100.00;100472.78;1678167;85;21145;-91
2022/08/03 11:20:05;;;;;;;10.03;9.05;;;;;;;19.94;100.00;100475.11;1677253;85;21165;-92
2022/08/03 11:22:53;;;;;;;10.08;9.23;;;;;;;19.92;100.00;100473.97;1678836;83;21044;-92
2022/08/03 11:25:20;;;;;;;10.40;9.40;;;;;;;19.88;100.00;100485.08;1720693;81;21508;-93
2022/08/03 11:27:47;;;;;;;9.13;8.25;;;;;;;19.79;100.00;100487.77;1736636;81;21129;-92
2022/08/03 11:30:25;;;;;;;9.83;8.93;;;;;;;19.75;100.00;100486.47;1728831;82;21089;-94